Flight Track Log - Related Links

Times and Time Zones

All times are in EDT time to prevent confusion due to time zone crossing. See the AAL2007 flight status page for this flight to view local times or setup timezone preferences in your user account.

Time Position Orientation Groundspeed Altitude Reporting Facility
EDT Latitude Longitude Course Direction KTS MPH feet Rate Location/Type
Mon 06:37:07 PM 41.9167 -87.9167 207° Southwest 180 207 3,100  Level Chicago TRACON
Mon 06:38:07 PM 41.8500 -87.9167 180° South 241 277 5,600 2,872 Climbing Chicago TRACON
Mon 06:39:00 PM 41.7140 -88.1746 201° Southwest  Level Estimated
Mon 06:39:04 PM 41.7997 -87.9308 192° South 244 281 8,700  Level Chicago Center
Mon 06:40:00 PM 41.6246 -88.2634 197° South  Level Estimated
Mon 06:40:06 PM 41.7353 -87.9767 208° Southwest 262 302 11,500  Level Chicago Center
Mon 06:41:00 PM 41.5229 -88.2030 156° South  Level FlightAware Approximate
Mon 06:41:08 PM 41.6600 -88.0178 202° Southwest 291 335 13,600  Level Chicago Center
Mon 06:42:00 PM 41.4340 -88.2924 207° Southwest  Level Estimated
Mon 06:42:09 PM 41.5733 -88.0750 206° Southwest 343 395 15,800  Level Chicago Center
Mon 06:43:11 PM 41.4644 -88.1406 204° Southwest 364 419 18,800 2,565 Climbing Chicago Center
Mon 06:44:13 PM 41.3719 -88.1978 205° Southwest 380 437 21,100 2,064 Climbing Chicago Center
Mon 06:45:16 PM 41.2706 -88.2422 198° South 391 450 23,100 1,824 Climbing Chicago Center
Mon 06:46:18 PM 41.1656 -88.2889 199° South 402 463 24,900 1,854 Climbing Chicago Center
Mon 06:47:19 PM 41.0339 -88.3503 199° South 420 483 26,900 1,512 Climbing Chicago Center
Mon 06:48:21 PM 40.9231 -88.4006 199° South 424 488 28,000 532 Climbing Chicago Center
Mon 06:49:23 PM 40.8169 -88.4608 203° Southwest 443 510 28,000  Level Chicago Center
Mon 06:50:25 PM 40.7414 -88.5722 228° Southwest 413 475 28,000  Level Chicago Center
Mon 06:51:27 PM 40.6547 -88.6697 220° Southwest 411 473 28,000  Level Chicago Center
Mon 06:52:29 PM 40.5517 -88.7853 220° Southwest 408 470 28,000  Level Chicago Center
Mon 06:53:31 PM 40.4667 -88.8858 222° Southwest 410 472 28,000  Level Chicago Center
Mon 06:54:33 PM 40.3814 -88.9869 222° Southwest 408 470 28,000  Level Chicago Center
Mon 06:55:35 PM 40.2947 -89.0839 220° Southwest 406 467 28,000  Level Chicago Center
Mon 06:56:37 PM 40.2094 -89.1842 222° Southwest 408 470 28,000  Level Chicago Center
Mon 06:57:39 PM 40.1236 -89.2839 222° Southwest 407 468 28,000  Level Chicago Center
Mon 06:58:22 PM 40.0542 -89.3622 221° Southwest 407 468 28,000  Level Kansas City Center
Mon 06:58:41 PM 40.0381 -89.3825 224° Southwest 408 470 28,000  Level Chicago Center
Mon 06:59:42 PM 39.9533 -89.4794 221° Southwest 403 464 28,000  Level Chicago Center
Mon 07:00:44 PM 39.8508 -89.5958 221° Southwest 403 464 28,000  Level Chicago Center
Mon 07:01:26 PM 39.7978 -89.6528 220° Southwest 406 467 28,000  Level Kansas City Center
Mon 07:02:29 PM 39.7125 -89.7525 222° Southwest 410 472 28,000  Level Kansas City Center
Mon 07:03:30 PM 39.6306 -89.8456 221° Southwest 410 472 28,000  Level Kansas City Center
Mon 07:04:31 PM 39.5281 -89.9608 221° Southwest 408 470 28,000  Level Kansas City Center
Mon 07:05:35 PM 39.4414 -90.0578 221° Southwest 410 472 28,000  Level Kansas City Center
Mon 07:06:36 PM 39.3547 -90.1553 221° Southwest 413 475 28,000  Level Kansas City Center
Mon 07:07:37 PM 39.2692 -90.2503 221° Southwest 410 472 28,000  Level Kansas City Center
Mon 07:08:41 PM 39.1839 -90.3453 221° Southwest 408 470 28,000  Level Kansas City Center
Mon 07:09:42 PM 39.0961 -90.4422 221° Southwest 414 476 28,000  Level Kansas City Center
Mon 07:10:42 PM 38.9908 -90.5581 221° Southwest 419 482 28,000  Level Kansas City Center
Mon 07:11:44 PM 38.9081 -90.6492 221° Southwest 406 467 28,000  Level Kansas City Center
Mon 07:12:47 PM 38.8194 -90.7472 221° Southwest 410 472 28,000  Level Kansas City Center
Mon 07:13:48 PM 38.7336 -90.8389 220° Southwest 411 473 28,000  Level Kansas City Center
Mon 07:14:49 PM 38.6497 -90.9311 221° Southwest 406 467 28,000  Level Kansas City Center
Mon 07:15:53 PM 38.5486 -91.0397 220° Southwest 400 460 28,000  Level Kansas City Center
Mon 07:16:54 PM 38.4644 -91.1306 220° Southwest 399 459 28,000  Level Kansas City Center
Mon 07:17:56 PM 38.3786 -91.2231 220° Southwest 405 466 28,000  Level Kansas City Center
Mon 07:18:57 PM 38.2944 -91.3136 220° Southwest 401 461 28,000  Level Kansas City Center
Mon 07:19:58 PM 38.2044 -91.4067 219° Southwest 396 456 28,000  Level Kansas City Center
Mon 07:21:02 PM 38.1206 -91.4961 220° Southwest 391 450 28,000  Level Kansas City Center
Mon 07:22:03 PM 38.0375 -91.5883 221° Southwest 394 453 28,000  Level Kansas City Center
Mon 07:23:03 PM 37.9511 -91.6783 219° Southwest 398 458 28,000  Level Kansas City Center
Mon 07:24:05 PM 37.8642 -91.7675 219° Southwest 398 458 28,000  Level Kansas City Center
Mon 07:25:09 PM 37.7794 -91.8592 221° Southwest 397 457 28,000  Level Kansas City Center
Mon 07:26:09 PM 37.6764 -91.9675 220° Southwest 398 458 28,000  Level Kansas City Center
Mon 07:27:10 PM 37.5894 -92.0589 220° Southwest 400 460 28,000  Level Kansas City Center
Mon 07:28:14 PM 37.5031 -92.1506 220° Southwest 402 463 28,000  Level Kansas City Center
Mon 07:29:15 PM 37.4181 -92.2392 220° Southwest 396 456 28,000  Level Kansas City Center
Mon 07:30:16 PM 37.3350 -92.3250 219° Southwest 388 447 28,000  Level Kansas City Center
Mon 07:31:18 PM 37.2503 -92.4114 219° Southwest 389 448 28,000  Level Kansas City Center
Mon 07:32:20 PM 37.1639 -92.5011 220° Southwest 396 456 28,000  Level Kansas City Center
Mon 07:33:20 PM 37.0775 -92.5906 220° Southwest 400 460 28,000 443 Level Kansas City Center
Mon 07:34:22 PM 36.9889 -92.6794 219° Southwest 405 466 28,900 989 Climbing Kansas City Center
Mon 07:36:22 PM 36.8108 -92.8628 220° Southwest 410 472 31,000 700 Climbing Memphis Center
Mon 07:37:22 PM 36.7217 -92.9533 219° Southwest 410 472 31,000  Level Memphis Center
Mon 07:38:22 PM 36.6342 -93.0408 219° Southwest 410 472 31,000 250 Level Memphis Center
Mon 07:39:22 PM 36.5469 -93.1286 219° Southwest 410 472 31,500 500 Climbing Memphis Center
Mon 07:40:22 PM 36.4511 -93.2233 218° Southwest 410 472 32,000 250 Climbing Memphis Center
Mon 07:41:22 PM 36.3656 -93.3131 220° Southwest 410 472 32,000  Level Memphis Center
Mon 07:42:22 PM 36.2781 -93.3975 218° Southwest 410 472 32,000  Level Memphis Center
Mon 07:43:22 PM 36.1903 -93.4842 219° Southwest 410 472 32,000  Level Memphis Center
Mon 07:44:22 PM 36.1047 -93.5681 218° Southwest 410 472 32,000  Level Memphis Center
Mon 07:45:22 PM 36.0256 -93.6472 219° Southwest 410 472 32,000  Level Memphis Center
Mon 07:46:22 PM 35.9378 -93.7336 219° Southwest 410 472 32,000  Level Memphis Center
Mon 07:47:22 PM 35.8500 -93.8194 218° Southwest 410 472 32,000  Level Memphis Center
Mon 07:48:22 PM 35.7642 -93.9056 219° Southwest 410 472 32,000  Level Memphis Center
Mon 07:49:22 PM 35.6761 -93.9911 218° Southwest 410 472 32,000  Level Memphis Center
Mon 07:50:22 PM 35.5883 -94.0742 218° Southwest 410 472 32,000  Level Memphis Center
Mon 07:51:22 PM 35.5000 -94.1619 219° Southwest 410 472 32,000  Level Memphis Center
Mon 07:52:22 PM 35.4142 -94.2447 218° Southwest 410 472 32,000  Level Memphis Center
Mon 07:53:22 PM 35.3178 -94.3217 213° Southwest 410 472 32,000  Level Memphis Center
Mon 07:54:22 PM 35.2214 -94.3983 213° Southwest 416 479 32,000  Level Memphis Center
Mon 07:55:22 PM 35.1253 -94.4700 211° Southwest 416 479 32,000  Level Memphis Center
Mon 07:56:18 PM 35.0314 -94.5483 214° Southwest 400 460 32,000  Level Fort Worth Center
Mon 07:57:19 PM 34.9350 -94.6175 210° Southwest 393 452 32,000  Level Fort Worth Center
Mon 07:58:19 PM 34.8489 -94.6861 213° Southwest 403 464 32,000  Level Fort Worth Center
Mon 07:59:18 PM 34.7506 -94.7625 213° Southwest 411 473 32,000  Level Fort Worth Center
Mon 08:00:19 PM 34.6581 -94.8311 211° Southwest 411 473 32,000  Level Fort Worth Center
Mon 08:01:19 PM 34.5614 -94.9019 211° Southwest 406 467 32,000  Level Fort Worth Center
Mon 08:02:18 PM 34.4647 -94.9753 212° Southwest 411 473 32,000  Level Fort Worth Center
Mon 08:03:19 PM 34.3681 -95.0461 211° Southwest 411 473 32,000  Level Fort Worth Center
Mon 08:04:18 PM 34.2714 -95.1189 212° Southwest 411 473 32,000  Level Fort Worth Center
Mon 08:05:18 PM 34.1767 -95.1917 212° Southwest 411 473 32,000  Level Fort Worth Center
Mon 08:06:18 PM 34.0778 -95.2619 210° Southwest 411 473 32,000  Level Fort Worth Center
Mon 08:07:18 PM 33.9789 -95.3344 211° Southwest 411 473 32,000  Level Fort Worth Center
Mon 08:08:18 PM 33.8797 -95.4094 212° Southwest 417 480 32,000  Level Fort Worth Center
Mon 08:09:18 PM 33.7828 -95.4767 210° Southwest 417 480 32,000  Level Fort Worth Center
Mon 08:10:18 PM 33.6881 -95.5511 213° Southwest 417 480 32,000  Level Fort Worth Center
Mon 08:11:19 PM 33.5928 -95.6156 209° Southwest 412 474 32,000  Level Fort Worth Center
Mon 08:12:19 PM 33.4936 -95.6872 211° Southwest 407 468 32,000  Level Fort Worth Center
Mon 08:13:18 PM 33.4008 -95.7589 213° Southwest 407 468 32,000  Level Fort Worth Center
Mon 08:14:18 PM 33.3036 -95.8278 211° Southwest 407 468 32,000  Level Fort Worth Center
Mon 08:15:18 PM 33.2000 -95.9017 211° Southwest 407 468 32,000  Level Fort Worth Center
Mon 08:16:19 PM 33.1008 -95.9753 212° Southwest 413 475 32,000  Level Fort Worth Center
Mon 08:17:18 PM 33.0056 -96.0436 211° Southwest 408 470 32,000  Level Fort Worth Center
Mon 08:18:19 PM 32.9081 -96.1144 211° Southwest 408 470 32,000  Level Fort Worth Center
Mon 08:19:19 PM 32.8106 -96.1825 210° Southwest 408 470 32,000  Level Fort Worth Center
Mon 08:20:19 PM 32.7133 -96.2506 211° Southwest 408 470 32,000  Level Fort Worth Center
Mon 08:21:19 PM 32.6158 -96.3208 211° Southwest 413 475 32,000  Level Fort Worth Center
Mon 08:22:18 PM 32.5203 -96.3883 211° Southwest 413 475 32,000  Level Fort Worth Center
Mon 08:23:18 PM 32.4331 -96.4486 210° Southwest 408 470 32,000  Level Fort Worth Center
Mon 08:24:19 PM 32.3356 -96.5158 210° Southwest 408 470 32,000  Level Fort Worth Center
Mon 08:25:19 PM 32.2400 -96.5856 212° Southwest 408 470 32,000  Level Fort Worth Center
Mon 08:26:19 PM 32.1422 -96.6553 211° Southwest 408 470 32,000 -350 Level Fort Worth Center
Mon 08:27:19 PM 32.0467 -96.7247 212° Southwest 408 470 31,300 -908 Descending Fort Worth Center
Mon 08:28:18 PM 31.9383 -96.7989 210° Southwest 409 471 30,200 -1,150 Descending Fort Worth Center
Mon 08:29:19 PM 31.8508 -96.8606 211° Southwest 409 471 29,000 -1,350 Descending Fort Worth Center
Mon 08:30:18 PM 31.7469 -96.9319 210° Southwest 414 476 27,500 -1,513 Descending Fort Worth Center
Mon 08:31:18 PM 31.6469 -97.0033 211° Southwest 424 488 26,000 -1,538 Descending Fort Worth Center
Mon 08:31:36 PM 31.6139 -97.0253 209° Southwest 427 491 25,500 -1,500 Descending Houston Center
Mon 08:32:38 PM 31.5094 -97.0931 209° Southwest 426 490 24,000 -1,452 Descending Houston Center
Mon 08:33:40 PM 31.3967 -97.1342 197° South 422 486 22,500 -1,500 Descending Houston Center
Mon 08:34:42 PM 31.2867 -97.1778 199° South 416 479 20,900 -1,512 Descending Houston Center
Mon 08:35:43 PM 31.1789 -97.2203 199° South 407 468 19,400 -1,854 Descending Houston Center
Mon 08:36:45 PM 31.0544 -97.2689 199° South 402 463 17,100 -2,032 Descending Houston Center
Mon 08:37:47 PM 30.9514 -97.3100 199° South 402 463 15,200 -1,887 Descending Houston Center
Mon 08:38:49 PM 30.8478 -97.3489 198° South 399 459 13,200 -1,854 Descending Houston Center
Mon 08:39:50 PM 30.7506 -97.3906 200° South 372 428 11,400 -1,463 Descending Houston Center
Mon 08:40:52 PM 30.6708 -97.4511 213° Southwest 342 394 10,200 -1,161 Descending Houston Center
Mon 08:41:54 PM 30.5972 -97.5161 217° Southwest 289 333 9,000 -1,355 Descending Houston Center
Mon 08:42:56 PM 30.5472 -97.5808 228° Southwest 270 311 7,400 -1,452 Descending Houston Center
Mon 08:43:58 PM 30.4858 -97.6275 213° Southwest 262 302 6,000 -1,171 Descending Houston Center
Mon 08:44:59 PM 30.4244 -97.6564 202° Southwest 244 281 5,000 -1,073 Descending Houston Center
Mon 08:46:01 PM 30.3661 -97.6622 185° South 216 249 3,800 -1,161 Descending Houston Center

Login

Don't have an account? Register now (free) for customized features, flight alerts, and more!